Sign-in with your pilot id or email, or register

ICAO: EGKK Name / Country: London/Gatwick / United Kingdom
Latitude: 51.1481 Longitude: -0.190278
Total Arrivals:
Strict Standards: Non-static method AirportData::getarrflights() should not be called statically, assuming $this from incompatible context in /var/www/customers/vh-7192/web/home/phpvms/core/templates/airport_info.tpl on line 18
1
Total Departures:
Strict Standards: Non-static method AirportData::getdeptflights() should not be called statically, assuming $this from incompatible context in /var/www/customers/vh-7192/web/home/phpvms/core/templates/airport_info.tpl on line 21
0
Latest Arrival: MTA614 (LHBP-EGKK) Tamás Zeke Latest Departure: (-)
Metar: EGKK 172220Z 06007KT CAVOK 10/06 Q1028
More info

Charts for EGKK


NOTAM


Warning: file_get_contents(http://api.vateud.net/notams/EGKK.json): failed to open stream: Redirection limit reached, aborting in /var/www/customers/vh-7192/web/home/phpvms/core/common/NOTAMSData.class.php on line 18

Warning: Invalid argument supplied for foreach() in /var/www/customers/vh-7192/web/home/phpvms/core/common/NOTAMSData.class.php on line 22

London/Gatwick